sensor_id;sensor_type;location;lat;lon;timestamp;temperature;humidity
31991;DHT22;18508;49.386;8.370;2023-07-24T00:00:08;19.70;1.00
31991;DHT22;18508;49.386;8.370;2023-07-24T00:02:39;19.70;1.00
31991;DHT22;18508;49.386;8.370;2023-07-24T00:05:08;19.60;1.00
31991;DHT22;18508;49.386;8.370;2023-07-24T00:07:39;19.60;1.00
31991;DHT22;18508;49.386;8.370;2023-07-24T00:10:08;19.60;1.00
31991;DHT22;18508;49.386;8.370;2023-07-24T00:12:37;19.80;1.00
31991;DHT22;18508;49.386;8.370;2023-07-24T00:15:10;19.40;1.00
31991;DHT22;18508;49.386;8.370;2023-07-24T00:17:41;19.50;1.00
31991;DHT22;18508;49.386;8.370;2023-07-24T00:20:10;19.50;1.00
31991;DHT22;18508;49.386;8.370;2023-07-24T00:25:09;19.50;22.00
31991;DHT22;18508;49.386;8.370;2023-07-24T00:27:37;20.00;21.60
31991;DHT22;18508;49.386;8.370;2023-07-24T00:30:09;19.50;45.40
31991;DHT22;18508;49.386;8.370;2023-07-24T00:32:37;19.70;76.70
31991;DHT22;18508;49.386;8.370;2023-07-24T00:35:07;19.40;83.10
31991;DHT22;18508;49.386;8.370;2023-07-24T00:37:35;19.40;99.90
31991;DHT22;18508;49.386;8.370;2023-07-24T00:40:06;19.30;99.90
31991;DHT22;18508;49.386;8.370;2023-07-24T00:42:35;19.20;99.90
31991;DHT22;18508;49.386;8.370;2023-07-24T00:45:04;19.20;99.90
31991;DHT22;18508;49.386;8.370;2023-07-24T00:47:33;19.20;99.90
31991;DHT22;18508;49.386;8.370;2023-07-24T00:50:02;19.20;99.90
31991;DHT22;18508;49.386;8.370;2023-07-24T00:52:31;19.20;99.90
31991;DHT22;18508;49.386;8.370;2023-07-24T00:54:59;19.20;99.90
31991;DHT22;18508;49.386;8.370;2023-07-24T00:57:32;19.20;99.90
31991;DHT22;18508;49.386;8.370;2023-07-24T01:00:01;19.20;99.90
31991;DHT22;18508;49.386;8.370;2023-07-24T01:02:30;19.20;99.90
31991;DHT22;18508;49.386;8.370;2023-07-24T01:04:59;19.20;99.90
31991;DHT22;18508;49.386;8.370;2023-07-24T01:07:28;19.20;99.90
31991;DHT22;18508;49.386;8.370;2023-07-24T01:09:57;19.00;99.90
31991;DHT22;18508;49.386;8.370;2023-07-24T01:12:34;19.10;99.90
31991;DHT22;18508;49.386;8.370;2023-07-24T01:15:08;19.20;99.90
31991;DHT22;18508;49.386;8.370;2023-07-24T01:17:42;19.20;99.90
31991;DHT22;18508;49.386;8.370;2023-07-24T01:20:16;19.20;99.90
31991;DHT22;18508;49.386;8.370;2023-07-24T01:22:54;19.20;99.90
31991;DHT22;18508;49.386;8.370;2023-07-24T01:25:28;19.10;1.00
31991;DHT22;18508;49.386;8.370;2023-07-24T01:28:06;20.10;1.00
31991;DHT22;18508;49.386;8.370;2023-07-24T01:30:36;19.10;1.00
31991;DHT22;18508;49.386;8.370;2023-07-24T01:33:04;19.10;1.00
31991;DHT22;18508;49.386;8.370;2023-07-24T01:35:33;19.10;1.00
31991;DHT22;18508;49.386;8.370;2023-07-24T01:38:02;19.10;1.00
31991;DHT22;18508;49.386;8.370;2023-07-24T01:40:31;19.20;1.00
31991;DHT22;18508;49.386;8.370;2023-07-24T01:43:03;19.20;1.00
31991;DHT22;18508;49.386;8.370;2023-07-24T01:45:32;19.30;1.00
31991;DHT22;18508;49.386;8.370;2023-07-24T01:48:00;19.30;1.00
31991;DHT22;18508;49.386;8.370;2023-07-24T01:50:28;19.30;1.00
31991;DHT22;18508;49.386;8.370;2023-07-24T01:52:57;19.30;1.00
31991;DHT22;18508;49.386;8.370;2023-07-24T01:55:27;19.30;1.00
31991;DHT22;18508;49.386;8.370;2023-07-24T01:57:56;19.30;1.00
31991;DHT22;18508;49.386;8.370;2023-07-24T02:00:26;19.30;1.00
31991;DHT22;18508;49.386;8.370;2023-07-24T02:02:55;19.30;1.00
31991;DHT22;18508;49.386;8.370;2023-07-24T02:05:27;19.30;2.90
31991;DHT22;18508;49.386;8.370;2023-07-24T02:07:55;19.20;23.80
31991;DHT22;18508;49.386;8.370;2023-07-24T02:10:24;19.30;38.40
31991;DHT22;18508;49.386;8.370;2023-07-24T02:12:53;19.10;99.90
31991;DHT22;18508;49.386;8.370;2023-07-24T02:15:21;19.10;99.90
31991;DHT22;18508;49.386;8.370;2023-07-24T02:17:51;19.00;99.90
31991;DHT22;18508;49.386;8.370;2023-07-24T02:20:20;19.00;1.00
31991;DHT22;18508;49.386;8.370;2023-07-24T02:22:48;18.90;99.90
31991;DHT22;18508;49.386;8.370;2023-07-24T02:25:17;18.90;1.00
31991;DHT22;18508;49.386;8.370;2023-07-24T02:27:45;18.90;1.00
31991;DHT22;18508;49.386;8.370;2023-07-24T02:30:16;19.20;1.00
31991;DHT22;18508;49.386;8.370;2023-07-24T02:32:44;18.80;1.00
31991;DHT22;18508;49.386;8.370;2023-07-24T02:35:15;18.80;99.90
31991;DHT22;18508;49.386;8.370;2023-07-24T02:37:45;18.70;99.90
31991;DHT22;18508;49.386;8.370;2023-07-24T02:40:13;18.70;99.90
31991;DHT22;18508;49.386;8.370;2023-07-24T02:42:42;18.60;99.90
31991;DHT22;18508;49.386;8.370;2023-07-24T02:45:17;18.50;99.90
31991;DHT22;18508;49.386;8.370;2023-07-24T02:47:46;18.40;1.00
31991;DHT22;18508;49.386;8.370;2023-07-24T02:50:20;18.40;1.00
31991;DHT22;18508;49.386;8.370;2023-07-24T02:52:48;18.40;1.00
31991;DHT22;18508;49.386;8.370;2023-07-24T02:55:17;18.50;1.00
31991;DHT22;18508;49.386;8.370;2023-07-24T02:57:47;18.40;1.00
31991;DHT22;18508;49.386;8.370;2023-07-24T03:00:15;18.40;1.00
31991;DHT22;18508;49.386;8.370;2023-07-24T03:02:44;18.40;99.90
31991;DHT22;18508;49.386;8.370;2023-07-24T03:05:13;18.50;1.00
31991;DHT22;18508;49.386;8.370;2023-07-24T03:07:43;18.40;1.00
31991;DHT22;18508;49.386;8.370;2023-07-24T03:10:12;18.40;1.00
31991;DHT22;18508;49.386;8.370;2023-07-24T03:12:40;18.40;1.00
31991;DHT22;18508;49.386;8.370;2023-07-24T03:15:10;18.40;1.00
31991;DHT22;18508;49.386;8.370;2023-07-24T03:17:38;18.40;1.00
31991;DHT22;18508;49.386;8.370;2023-07-24T03:20:14;18.40;1.00
31991;DHT22;18508;49.386;8.370;2023-07-24T03:22:45;18.40;1.00
31991;DHT22;18508;49.386;8.370;2023-07-24T03:25:13;18.40;1.00
31991;DHT22;18508;49.386;8.370;2023-07-24T03:32:40;18.40;1.00
31991;DHT22;18508;49.386;8.370;2023-07-24T03:35:09;18.40;1.00
31991;DHT22;18508;49.386;8.370;2023-07-24T03:37:37;18.50;1.00
31991;DHT22;18508;49.386;8.370;2023-07-24T03:40:09;18.50;1.00
31991;DHT22;18508;49.386;8.370;2023-07-24T03:42:37;18.60;1.00
31991;DHT22;18508;49.386;8.370;2023-07-24T03:45:09;18.60;1.00
31991;DHT22;18508;49.386;8.370;2023-07-24T03:50:09;18.60;1.00
31991;DHT22;18508;49.386;8.370;2023-07-24T03:52:38;18.70;1.00
31991;DHT22;18508;49.386;8.370;2023-07-24T03:55:08;18.60;1.00
31991;DHT22;18508;49.386;8.370;2023-07-24T04:00:07;18.70;1.00
31991;DHT22;18508;49.386;8.370;2023-07-24T04:02:36;18.70;1.00
31991;DHT22;18508;49.386;8.370;2023-07-24T04:05:07;18.70;1.00
31991;DHT22;18508;49.386;8.370;2023-07-24T04:07:35;18.80;1.00
31991;DHT22;18508;49.386;8.370;2023-07-24T04:10:08;19.20;1.00
31991;DHT22;18508;49.386;8.370;2023-07-24T04:12:37;18.70;1.00
31991;DHT22;18508;49.386;8.370;2023-07-24T04:15:06;18.70;1.00
31991;DHT22;18508;49.386;8.370;2023-07-24T04:17:35;18.10;1.00
31991;DHT22;18508;49.386;8.370;2023-07-24T04:20:07;18.80;1.00
31991;DHT22;18508;49.386;8.370;2023-07-24T04:22:35;18.80;1.00
31991;DHT22;18508;49.386;8.370;2023-07-24T04:25:09;19.00;1.00
31991;DHT22;18508;49.386;8.370;2023-07-24T04:27:38;18.80;1.00
31991;DHT22;18508;49.386;8.370;2023-07-24T04:30:07;18.80;1.00
31991;DHT22;18508;49.386;8.370;2023-07-24T04:35:07;18.80;1.00
31991;DHT22;18508;49.386;8.370;2023-07-24T04:40:06;18.20;1.00
31991;DHT22;18508;49.386;8.370;2023-07-24T04:45:06;18.90;1.00
31991;DHT22;18508;49.386;8.370;2023-07-24T04:47:35;18.80;1.00
31991;DHT22;18508;49.386;8.370;2023-07-24T04:50:06;18.90;1.00
31991;DHT22;18508;49.386;8.370;2023-07-24T04:52:35;18.90;1.00
31991;DHT22;18508;49.386;8.370;2023-07-24T04:55:04;18.80;1.00
31991;DHT22;18508;49.386;8.370;2023-07-24T05:00:03;18.80;1.00
31991;DHT22;18508;49.386;8.370;2023-07-24T05:02:33;18.80;1.00
31991;DHT22;18508;49.386;8.370;2023-07-24T05:05:01;18.90;1.00
31991;DHT22;18508;49.386;8.370;2023-07-24T05:07:30;18.90;1.00
31991;DHT22;18508;49.386;8.370;2023-07-24T05:09:59;19.00;1.00
31991;DHT22;18508;49.386;8.370;2023-07-24T05:12:29;19.10;1.00
31991;DHT22;18508;49.386;8.370;2023-07-24T05:15:02;19.20;1.00
31991;DHT22;18508;49.386;8.370;2023-07-24T05:17:30;19.20;1.00
31991;DHT22;18508;49.386;8.370;2023-07-24T05:20:01;19.20;1.00
31991;DHT22;18508;49.386;8.370;2023-07-24T05:22:29;19.30;1.00
31991;DHT22;18508;49.386;8.370;2023-07-24T05:25:01;19.30;1.00
31991;DHT22;18508;49.386;8.370;2023-07-24T05:27:29;19.30;1.00
31991;DHT22;18508;49.386;8.370;2023-07-24T05:29:58;19.30;1.00
31991;DHT22;18508;49.386;8.370;2023-07-24T05:32:27;19.40;1.00
31991;DHT22;18508;49.386;8.370;2023-07-24T05:34:57;19.40;1.00
31991;DHT22;18508;49.386;8.370;2023-07-24T05:37:25;19.50;1.00
31991;DHT22;18508;49.386;8.370;2023-07-24T05:39:54;20.00;1.00
31991;DHT22;18508;49.386;8.370;2023-07-24T05:42:22;19.60;1.00
31991;DHT22;18508;49.386;8.370;2023-07-24T05:44:51;19.50;1.00
31991;DHT22;18508;49.386;8.370;2023-07-24T05:47:19;19.40;1.00
31991;DHT22;18508;49.386;8.370;2023-07-24T05:49:50;19.70;1.00
31991;DHT22;18508;49.386;8.370;2023-07-24T05:52:18;19.40;1.00
31991;DHT22;18508;49.386;8.370;2023-07-24T05:54:46;19.70;1.00
31991;DHT22;18508;49.386;8.370;2023-07-24T05:57:17;19.80;1.00
31991;DHT22;18508;49.386;8.370;2023-07-24T05:59:45;19.80;1.00
31991;DHT22;18508;49.386;8.370;2023-07-24T06:02:13;19.90;1.00
31991;DHT22;18508;49.386;8.370;2023-07-24T06:04:42;19.70;1.00
31991;DHT22;18508;49.386;8.370;2023-07-24T06:07:13;19.90;1.00
31991;DHT22;18508;49.386;8.370;2023-07-24T06:09:43;20.30;1.00
31991;DHT22;18508;49.386;8.370;2023-07-24T06:12:14;20.00;1.00
31991;DHT22;18508;49.386;8.370;2023-07-24T06:14:43;20.10;1.00
31991;DHT22;18508;49.386;8.370;2023-07-24T06:17:14;20.40;1.00
31991;DHT22;18508;49.386;8.370;2023-07-24T06:19:42;19.90;1.00
31991;DHT22;18508;49.386;8.370;2023-07-24T06:22:14;20.10;1.00
31991;DHT22;18508;49.386;8.370;2023-07-24T06:24:42;20.30;1.00
31991;DHT22;18508;49.386;8.370;2023-07-24T06:27:11;20.30;99.90
31991;DHT22;18508;49.386;8.370;2023-07-24T06:29:39;21.90;1.00
31991;DHT22;18508;49.386;8.370;2023-07-24T06:32:08;20.50;99.90
31991;DHT22;18508;49.386;8.370;2023-07-24T06:34:37;20.50;99.90
31991;DHT22;18508;49.386;8.370;2023-07-24T06:39:50;20.70;99.90
31991;DHT22;18508;49.386;8.370;2023-07-24T06:42:18;20.70;99.90
31991;DHT22;18508;49.386;8.370;2023-07-24T06:44:47;20.50;99.90
31991;DHT22;18508;49.386;8.370;2023-07-24T06:47:16;20.70;99.90
31991;DHT22;18508;49.386;8.370;2023-07-24T06:49:44;20.80;99.90
31991;DHT22;18508;49.386;8.370;2023-07-24T06:52:14;20.90;99.90
31991;DHT22;18508;49.386;8.370;2023-07-24T06:54:42;21.50;99.90
31991;DHT22;18508;49.386;8.370;2023-07-24T06:57:15;21.10;99.90
31991;DHT22;18508;49.386;8.370;2023-07-24T06:59:44;21.30;99.90
31991;DHT22;18508;49.386;8.370;2023-07-24T07:02:12;21.60;99.90
31991;DHT22;18508;49.386;8.370;2023-07-24T07:04:41;21.60;99.90
31991;DHT22;18508;49.386;8.370;2023-07-24T07:07:09;21.70;99.90
31991;DHT22;18508;49.386;8.370;2023-07-24T07:09:38;21.80;99.90
31991;DHT22;18508;49.386;8.370;2023-07-24T07:12:07;21.90;99.90
31991;DHT22;18508;49.386;8.370;2023-07-24T07:14:37;21.60;1.00
31991;DHT22;18508;49.386;8.370;2023-07-24T07:17:06;21.90;14.50
31991;DHT22;18508;49.386;8.370;2023-07-24T07:19:34;22.40;1.00
31991;DHT22;18508;49.386;8.370;2023-07-24T07:22:06;22.50;1.00
31991;DHT22;18508;49.386;8.370;2023-07-24T07:24:35;22.30;1.00
31991;DHT22;18508;49.386;8.370;2023-07-24T07:27:05;22.50;99.90
31991;DHT22;18508;49.386;8.370;2023-07-24T07:29:33;22.70;99.90
31991;DHT22;18508;49.386;8.370;2023-07-24T07:32:07;23.10;99.90
31991;DHT22;18508;49.386;8.370;2023-07-24T07:34:36;22.70;99.90
31991;DHT22;18508;49.386;8.370;2023-07-24T07:37:06;22.80;99.90
31991;DHT22;18508;49.386;8.370;2023-07-24T07:39:34;22.80;99.90
31991;DHT22;18508;49.386;8.370;2023-07-24T07:42:04;22.80;99.90
31991;DHT22;18508;49.386;8.370;2023-07-24T07:44:44;23.00;99.90
31991;DHT22;18508;49.386;8.370;2023-07-24T07:47:15;23.10;99.90
31991;DHT22;18508;49.386;8.370;2023-07-24T07:52:14;23.20;99.90
31991;DHT22;18508;49.386;8.370;2023-07-24T07:54:53;23.30;99.90
31991;DHT22;18508;49.386;8.370;2023-07-24T07:57:24;23.20;99.90
31991;DHT22;18508;49.386;8.370;2023-07-24T07:59:53;23.10;99.90
31991;DHT22;18508;49.386;8.370;2023-07-24T08:02:24;23.20;99.90
31991;DHT22;18508;49.386;8.370;2023-07-24T08:04:53;23.40;99.90
31991;DHT22;18508;49.386;8.370;2023-07-24T08:09:50;22.90;99.90
31991;DHT22;18508;49.386;8.370;2023-07-24T08:12:19;23.70;99.90
31991;DHT22;18508;49.386;8.370;2023-07-24T08:14:48;23.40;99.90
31991;DHT22;18508;49.386;8.370;2023-07-24T08:17:17;23.20;21.90
31991;DHT22;18508;49.386;8.370;2023-07-24T08:19:47;23.40;1.00
31991;DHT22;18508;49.386;8.370;2023-07-24T08:22:16;23.80;1.00
31991;DHT22;18508;49.386;8.370;2023-07-24T08:24:46;23.60;1.00
31991;DHT22;18508;49.386;8.370;2023-07-24T08:27:21;23.80;1.00
31991;DHT22;18508;49.386;8.370;2023-07-24T08:29:50;24.10;1.00
31991;DHT22;18508;49.386;8.370;2023-07-24T08:32:24;24.40;1.00
31991;DHT22;18508;49.386;8.370;2023-07-24T08:34:54;24.20;1.00
31991;DHT22;18508;49.386;8.370;2023-07-24T08:37:22;24.50;99.90
31991;DHT22;18508;49.386;8.370;2023-07-24T08:39:52;24.50;99.90
31991;DHT22;18508;49.386;8.370;2023-07-24T08:44:53;24.40;1.00
31991;DHT22;18508;49.386;8.370;2023-07-24T08:47:23;24.70;99.90
31991;DHT22;18508;49.386;8.370;2023-07-24T08:49:54;24.80;99.90
31991;DHT22;18508;49.386;8.370;2023-07-24T08:52:23;24.80;99.90
31991;DHT22;18508;49.386;8.370;2023-07-24T08:55:04;25.00;99.90
31991;DHT22;18508;49.386;8.370;2023-07-24T08:57:34;24.60;99.90
31991;DHT22;18508;49.386;8.370;2023-07-24T09:00:05;24.70;99.90
31991;DHT22;18508;49.386;8.370;2023-07-24T09:02:34;24.90;99.90
31991;DHT22;18508;49.386;8.370;2023-07-24T09:05:06;25.00;99.90
31991;DHT22;18508;49.386;8.370;2023-07-24T09:07:37;25.30;99.90
31991;DHT22;18508;49.386;8.370;2023-07-24T09:10:07;25.20;99.90
31991;DHT22;18508;49.386;8.370;2023-07-24T09:12:37;25.60;99.90
31991;DHT22;18508;49.386;8.370;2023-07-24T09:15:11;25.40;99.90
31991;DHT22;18508;49.386;8.370;2023-07-24T09:17:48;25.60;60.10
31991;DHT22;18508;49.386;8.370;2023-07-24T09:20:21;25.50;1.00
31991;DHT22;18508;49.386;8.370;2023-07-24T09:22:54;25.70;67.00
31991;DHT22;18508;49.386;8.370;2023-07-24T09:25:43;25.90;37.30
31991;DHT22;18508;49.386;8.370;2023-07-24T09:28:13;25.80;1.00
31991;DHT22;18508;49.386;8.370;2023-07-24T09:30:51;25.80;1.00
31991;DHT22;18508;49.386;8.370;2023-07-24T09:33:20;25.00;20.10
31991;DHT22;18508;49.386;8.370;2023-07-24T09:36:00;25.40;36.10
31991;DHT22;18508;49.386;8.370;2023-07-24T09:38:31;25.50;84.60
31991;DHT22;18508;49.386;8.370;2023-07-24T09:41:01;25.50;41.30
31991;DHT22;18508;49.386;8.370;2023-07-24T09:43:31;25.50;1.00
31991;DHT22;18508;49.386;8.370;2023-07-24T09:46:04;25.40;19.80
31991;DHT22;18508;49.386;8.370;2023-07-24T09:48:34;25.40;29.90
31991;DHT22;18508;49.386;8.370;2023-07-24T09:51:11;24.90;99.90
31991;DHT22;18508;49.386;8.370;2023-07-24T09:53:46;25.40;99.90
31991;DHT22;18508;49.386;8.370;2023-07-24T09:56:17;25.60;99.90
31991;DHT22;18508;49.386;8.370;2023-07-24T09:58:58;25.80;99.90
31991;DHT22;18508;49.386;8.370;2023-07-24T10:01:31;25.40;99.90
31991;DHT22;18508;49.386;8.370;2023-07-24T10:04:01;25.30;1.00
31991;DHT22;18508;49.386;8.370;2023-07-24T10:06:31;25.40;1.00
31991;DHT22;18508;49.386;8.370;2023-07-24T10:09:00;25.10;2.70
31991;DHT22;18508;49.386;8.370;2023-07-24T10:11:29;25.30;99.90
31991;DHT22;18508;49.386;8.370;2023-07-24T10:13:59;24.90;99.90
31991;DHT22;18508;49.386;8.370;2023-07-24T10:16:30;24.80;99.90
31991;DHT22;18508;49.386;8.370;2023-07-24T10:19:00;25.10;99.90
31991;DHT22;18508;49.386;8.370;2023-07-24T10:21:28;24.40;1.00
31991;DHT22;18508;49.386;8.370;2023-07-24T10:24:07;24.70;1.00
31991;DHT22;18508;49.386;8.370;2023-07-24T10:26:35;24.80;1.00
31991;DHT22;18508;49.386;8.370;2023-07-24T10:29:04;24.90;1.00
31991;DHT22;18508;49.386;8.370;2023-07-24T10:31:39;24.70;1.00
31991;DHT22;18508;49.386;8.370;2023-07-24T10:34:08;24.70;1.00
31991;DHT22;18508;49.386;8.370;2023-07-24T10:36:36;24.80;1.00
31991;DHT22;18508;49.386;8.370;2023-07-24T10:39:15;24.80;99.90
31991;DHT22;18508;49.386;8.370;2023-07-24T10:41:45;24.90;99.90
31991;DHT22;18508;49.386;8.370;2023-07-24T10:44:13;25.10;99.90
31991;DHT22;18508;49.386;8.370;2023-07-24T10:46:42;24.90;99.90
31991;DHT22;18508;49.386;8.370;2023-07-24T10:49:12;25.30;99.90
31991;DHT22;18508;49.386;8.370;2023-07-24T10:51:42;25.30;99.90
31991;DHT22;18508;49.386;8.370;2023-07-24T10:54:11;25.60;99.90
31991;DHT22;18508;49.386;8.370;2023-07-24T10:56:41;25.70;99.90
31991;DHT22;18508;49.386;8.370;2023-07-24T10:59:09;25.80;42.40
31991;DHT22;18508;49.386;8.370;2023-07-24T11:01:41;25.80;1.70
31991;DHT22;18508;49.386;8.370;2023-07-24T11:04:10;25.40;69.00
31991;DHT22;18508;49.386;8.370;2023-07-24T11:06:40;25.80;99.90
31991;DHT22;18508;49.386;8.370;2023-07-24T11:09:08;25.60;99.90
31991;DHT22;18508;49.386;8.370;2023-07-24T11:11:37;25.80;97.20
31991;DHT22;18508;49.386;8.370;2023-07-24T11:14:13;25.80;57.60
31991;DHT22;18508;49.386;8.370;2023-07-24T11:16:48;25.60;99.90
31991;DHT22;18508;49.386;8.370;2023-07-24T11:19:22;25.10;99.90
31991;DHT22;18508;49.386;8.370;2023-07-24T11:21:51;25.40;99.90
31991;DHT22;18508;49.386;8.370;2023-07-24T11:24:20;24.90;99.90
31991;DHT22;18508;49.386;8.370;2023-07-24T11:26:51;25.70;99.90
31991;DHT22;18508;49.386;8.370;2023-07-24T11:29:23;25.40;99.90
31991;DHT22;18508;49.386;8.370;2023-07-24T11:31:54;25.70;99.90
31991;DHT22;18508;49.386;8.370;2023-07-24T11:34:24;25.40;99.90
31991;DHT22;18508;49.386;8.370;2023-07-24T11:36:53;25.40;99.90
31991;DHT22;18508;49.386;8.370;2023-07-24T11:39:22;25.00;1.00
31991;DHT22;18508;49.386;8.370;2023-07-24T11:41:56;24.80;1.00
31991;DHT22;18508;49.386;8.370;2023-07-24T11:44:27;24.80;1.00
31991;DHT22;18508;49.386;8.370;2023-07-24T11:47:02;24.80;1.00
31991;DHT22;18508;49.386;8.370;2023-07-24T11:49:32;24.90;1.00
31991;DHT22;18508;49.386;8.370;2023-07-24T11:52:06;25.10;1.00
31991;DHT22;18508;49.386;8.370;2023-07-24T11:54:36;25.00;1.00
31991;DHT22;18508;49.386;8.370;2023-07-24T11:57:14;25.30;1.00
31991;DHT22;18508;49.386;8.370;2023-07-24T11:59:47;25.60;1.00
31991;DHT22;18508;49.386;8.370;2023-07-24T12:02:16;25.90;1.00
31991;DHT22;18508;49.386;8.370;2023-07-24T12:04:47;25.80;99.90
31991;DHT22;18508;49.386;8.370;2023-07-24T12:07:28;25.50;1.00
31991;DHT22;18508;49.386;8.370;2023-07-24T12:09:57;25.20;1.00
31991;DHT22;18508;49.386;8.370;2023-07-24T12:12:37;24.80;1.00
31991;DHT22;18508;49.386;8.370;2023-07-24T12:15:14;24.70;96.80
31991;DHT22;18508;49.386;8.370;2023-07-24T12:17:43;24.70;99.90
31991;DHT22;18508;49.386;8.370;2023-07-24T12:20:27;24.80;99.90
31991;DHT22;18508;49.386;8.370;2023-07-24T12:22:55;25.20;99.90
31991;DHT22;18508;49.386;8.370;2023-07-24T12:25:24;27.40;1.00
31991;DHT22;18508;49.386;8.370;2023-07-24T12:27:54;25.10;99.90
31991;DHT22;18508;49.386;8.370;2023-07-24T12:30:24;25.00;99.90
31991;DHT22;18508;49.386;8.370;2023-07-24T12:32:54;25.00;99.90
31991;DHT22;18508;49.386;8.370;2023-07-24T12:35:22;25.00;99.90
31991;DHT22;18508;49.386;8.370;2023-07-24T12:37:51;25.40;99.90
31991;DHT22;18508;49.386;8.370;2023-07-24T12:40:19;25.80;1.00
31991;DHT22;18508;49.386;8.370;2023-07-24T12:42:47;26.50;1.00
31991;DHT22;18508;49.386;8.370;2023-07-24T12:45:16;26.40;1.00
31991;DHT22;18508;49.386;8.370;2023-07-24T12:47:46;26.50;99.90
31991;DHT22;18508;49.386;8.370;2023-07-24T12:50:14;27.00;99.90
31991;DHT22;18508;49.386;8.370;2023-07-24T12:52:44;27.20;99.90
31991;DHT22;18508;49.386;8.370;2023-07-24T12:55:13;27.70;36.80
31991;DHT22;18508;49.386;8.370;2023-07-24T12:57:44;27.90;1.00
31991;DHT22;18508;49.386;8.370;2023-07-24T13:00:13;27.70;1.00
31991;DHT22;18508;49.386;8.370;2023-07-24T13:02:42;27.50;1.00
31991;DHT22;18508;49.386;8.370;2023-07-24T13:05:12;27.40;1.00
31991;DHT22;18508;49.386;8.370;2023-07-24T13:07:41;27.30;1.00
31991;DHT22;18508;49.386;8.370;2023-07-24T13:12:41;28.00;99.90
31991;DHT22;18508;49.386;8.370;2023-07-24T13:15:11;28.10;99.90
31991;DHT22;18508;49.386;8.370;2023-07-24T13:17:40;28.30;99.90
31991;DHT22;18508;49.386;8.370;2023-07-24T13:20:10;27.80;99.90
31991;DHT22;18508;49.386;8.370;2023-07-24T13:22:39;27.70;99.90
31991;DHT22;18508;49.386;8.370;2023-07-24T13:25:10;28.20;83.50
31991;DHT22;18508;49.386;8.370;2023-07-24T13:27:39;28.90;1.00
31991;DHT22;18508;49.386;8.370;2023-07-24T13:30:09;28.90;1.00
31991;DHT22;18508;49.386;8.370;2023-07-24T13:32:38;29.00;1.00
31991;DHT22;18508;49.386;8.370;2023-07-24T13:35:08;29.10;1.00
31991;DHT22;18508;49.386;8.370;2023-07-24T13:37:36;29.80;1.00
31991;DHT22;18508;49.386;8.370;2023-07-24T13:40:09;29.90;99.90
31991;DHT22;18508;49.386;8.370;2023-07-24T13:42:57;29.40;99.90
31991;DHT22;18508;49.386;8.370;2023-07-24T13:45:26;29.00;99.90
31991;DHT22;18508;49.386;8.370;2023-07-24T13:47:58;28.90;99.90
31991;DHT22;18508;49.386;8.370;2023-07-24T13:50:27;28.80;99.90
31991;DHT22;18508;49.386;8.370;2023-07-24T13:52:55;28.10;99.90
31991;DHT22;18508;49.386;8.370;2023-07-24T13:55:26;27.30;99.90
31991;DHT22;18508;49.386;8.370;2023-07-24T13:57:54;26.90;1.00
31991;DHT22;18508;49.386;8.370;2023-07-24T14:00:22;26.80;1.00
31991;DHT22;18508;49.386;8.370;2023-07-24T14:02:51;26.60;1.00
31991;DHT22;18508;49.386;8.370;2023-07-24T14:05:20;26.40;1.00
31991;DHT22;18508;49.386;8.370;2023-07-24T14:07:54;26.30;44.10
31991;DHT22;18508;49.386;8.370;2023-07-24T14:10:23;25.50;99.90
31991;DHT22;18508;49.386;8.370;2023-07-24T14:13:08;25.40;1.00
31991;DHT22;18508;49.386;8.370;2023-07-24T14:15:37;22.50;99.90
31991;DHT22;18508;49.386;8.370;2023-07-24T14:18:06;20.40;99.90
31991;DHT22;18508;49.386;8.370;2023-07-24T14:20:34;20.20;99.90
31991;DHT22;18508;49.386;8.370;2023-07-24T14:23:05;19.90;99.90
31991;DHT22;18508;49.386;8.370;2023-07-24T14:25:34;19.80;99.90
31991;DHT22;18508;49.386;8.370;2023-07-24T14:28:02;19.70;99.90
31991;DHT22;18508;49.386;8.370;2023-07-24T14:30:34;19.80;99.90
31991;DHT22;18508;49.386;8.370;2023-07-24T14:33:05;20.00;99.90
31991;DHT22;18508;49.386;8.370;2023-07-24T14:35:34;20.20;99.90
31991;DHT22;18508;49.386;8.370;2023-07-24T14:38:02;21.00;99.90
31991;DHT22;18508;49.386;8.370;2023-07-24T14:40:32;20.90;99.90
31991;DHT22;18508;49.386;8.370;2023-07-24T14:43:01;21.00;99.90
31991;DHT22;18508;49.386;8.370;2023-07-24T14:45:35;20.90;99.90
31991;DHT22;18508;49.386;8.370;2023-07-24T14:48:04;21.00;99.90
31991;DHT22;18508;49.386;8.370;2023-07-24T14:50:36;20.80;99.90
31991;DHT22;18508;49.386;8.370;2023-07-24T14:53:07;20.70;99.90
31991;DHT22;18508;49.386;8.370;2023-07-24T14:55:36;20.80;99.90
31991;DHT22;18508;49.386;8.370;2023-07-24T14:58:05;20.90;99.90
31991;DHT22;18508;49.386;8.370;2023-07-24T15:00:45;21.00;99.90
31991;DHT22;18508;49.386;8.370;2023-07-24T15:03:14;21.20;99.90
31991;DHT22;18508;49.386;8.370;2023-07-24T15:05:43;21.80;99.90
31991;DHT22;18508;49.386;8.370;2023-07-24T15:08:12;22.50;99.90
31991;DHT22;18508;49.386;8.370;2023-07-24T15:11:03;23.20;99.90
31991;DHT22;18508;49.386;8.370;2023-07-24T15:14:00;24.30;99.90
31991;DHT22;18508;49.386;8.370;2023-07-24T15:16:47;24.00;99.90
31991;DHT22;18508;49.386;8.370;2023-07-24T15:19:29;24.00;99.90
31991;DHT22;18508;49.386;8.370;2023-07-24T15:22:08;23.50;99.90
31991;DHT22;18508;49.386;8.370;2023-07-24T15:24:37;23.70;99.90
31991;DHT22;18508;49.386;8.370;2023-07-24T15:27:08;24.50;99.90
31991;DHT22;18508;49.386;8.370;2023-07-24T15:29:36;24.70;99.90
31991;DHT22;18508;49.386;8.370;2023-07-24T15:32:12;24.90;99.90
31991;DHT22;18508;49.386;8.370;2023-07-24T15:34:41;25.00;99.90
31991;DHT22;18508;49.386;8.370;2023-07-24T15:37:10;24.80;99.90
31991;DHT22;18508;49.386;8.370;2023-07-24T15:39:39;25.20;99.90
31991;DHT22;18508;49.386;8.370;2023-07-24T15:42:08;25.00;99.90
31991;DHT22;18508;49.386;8.370;2023-07-24T15:44:37;25.80;99.90
31991;DHT22;18508;49.386;8.370;2023-07-24T15:47:06;26.00;99.90
31991;DHT22;18508;49.386;8.370;2023-07-24T15:49:37;25.60;99.90
31991;DHT22;18508;49.386;8.370;2023-07-24T15:52:09;24.50;99.90
31991;DHT22;18508;49.386;8.370;2023-07-24T15:54:38;24.00;99.90
31991;DHT22;18508;49.386;8.370;2023-07-24T15:57:06;23.40;99.90
31991;DHT22;18508;49.386;8.370;2023-07-24T15:59:38;23.20;99.90
31991;DHT22;18508;49.386;8.370;2023-07-24T16:02:08;22.70;99.90
31991;DHT22;18508;49.386;8.370;2023-07-24T16:04:38;21.70;99.90
31991;DHT22;18508;49.386;8.370;2023-07-24T16:07:08;21.90;99.90
31991;DHT22;18508;49.386;8.370;2023-07-24T16:09:37;21.70;99.90
31991;DHT22;18508;49.386;8.370;2023-07-24T16:12:06;21.40;99.90
31991;DHT22;18508;49.386;8.370;2023-07-24T16:14:34;22.00;99.90
31991;DHT22;18508;49.386;8.370;2023-07-24T16:17:04;22.80;99.90
31991;DHT22;18508;49.386;8.370;2023-07-24T16:19:32;23.40;99.90
31991;DHT22;18508;49.386;8.370;2023-07-24T16:22:02;24.10;99.90
31991;DHT22;18508;49.386;8.370;2023-07-24T16:24:31;25.00;99.90
31991;DHT22;18508;49.386;8.370;2023-07-24T16:27:01;25.80;1.00
31991;DHT22;18508;49.386;8.370;2023-07-24T16:29:30;26.10;99.90
31991;DHT22;18508;49.386;8.370;2023-07-24T16:32:01;26.50;73.50